createdAt,value
2017-11-08T00:01:52.230Z,36.22
2017-11-08T00:03:53.988Z,31.83
2017-11-08T00:05:55.124Z,30.40
2017-11-08T00:07:56.120Z,30.27
2017-11-08T00:09:57.181Z,28.10
2017-11-08T00:11:58.256Z,28.60
2017-11-08T00:13:59.473Z,31.40
2017-11-08T00:16:00.703Z,29.40
2017-11-08T00:18:07.445Z,30.77
2017-11-08T00:20:08.563Z,29.90
2017-11-08T00:22:10.570Z,27.70
2017-11-08T00:24:12.106Z,29.13
2017-11-08T00:26:13.277Z,29.30
2017-11-08T00:28:14.364Z,26.37
2017-11-08T00:30:16.299Z,30.10
2017-11-08T00:32:17.346Z,29.00
2017-11-08T00:34:18.462Z,29.97
2017-11-08T00:36:19.442Z,35.35
2017-11-08T00:38:20.573Z,32.40
2017-11-08T00:40:21.563Z,30.10
2017-11-08T00:42:22.668Z,30.37
2017-11-08T00:44:24.124Z,27.57
2017-11-08T00:46:25.159Z,29.70
2017-11-08T00:48:26.221Z,28.20
2017-11-08T00:50:27.495Z,28.87
2017-11-08T00:52:29.248Z,29.30
2017-11-08T00:54:30.311Z,31.50
2017-11-08T00:56:31.519Z,29.20
2017-11-08T00:58:32.710Z,30.10
2017-11-08T01:00:33.930Z,31.10
2017-11-08T01:02:34.910Z,28.10
2017-11-08T01:04:35.924Z,28.97
2017-11-08T01:06:38.183Z,30.30
2017-11-08T01:08:39.181Z,30.50
2017-11-08T01:10:40.181Z,30.73
2017-11-08T01:12:41.200Z,31.07
2017-11-08T01:14:43.026Z,31.07
2017-11-08T01:16:44.169Z,30.57
2017-11-08T01:18:45.377Z,33.00
2017-11-08T01:20:46.372Z,31.50
2017-11-08T01:22:47.710Z,31.17
2017-11-08T01:24:48.707Z,28.47
2017-11-08T01:26:49.713Z,30.67
2017-11-08T01:28:50.902Z,28.53
2017-11-08T01:30:52.115Z,30.80
2017-11-08T01:32:53.093Z,30.17
2017-11-08T01:34:54.046Z,30.60
2017-11-08T01:37:01.233Z,33.93
2017-11-08T01:39:04.997Z,31.30
2017-11-08T01:41:12.121Z,31.37
2017-11-08T01:43:13.107Z,33.17
2017-11-08T01:45:14.377Z,31.87
2017-11-08T01:47:15.421Z,33.20
2017-11-08T01:49:16.466Z,30.77
2017-11-08T01:51:17.543Z,29.93
2017-11-08T01:53:18.521Z,31.00
2017-11-08T01:55:19.653Z,32.20
2017-11-08T01:57:20.693Z,29.87
2017-11-08T01:59:21.939Z,29.80
2017-11-08T02:01:22.974Z,31.83
2017-11-08T02:03:23.969Z,31.77
2017-11-08T02:05:25.023Z,30.40
2017-11-08T02:07:26.051Z,30.40
2017-11-08T02:09:27.152Z,30.97
2017-11-08T02:11:28.133Z,29.70
2017-11-08T02:13:29.216Z,31.60
2017-11-08T02:15:30.211Z,29.13
2017-11-08T02:17:31.322Z,31.10
2017-11-08T02:19:32.311Z,29.07
2017-11-08T02:21:33.286Z,30.17
2017-11-08T02:23:34.297Z,30.70
2017-11-08T02:25:35.261Z,31.17
2017-11-08T02:27:36.248Z,31.03
2017-11-08T02:29:37.567Z,32.17
2017-11-08T02:31:38.684Z,29.70
2017-11-08T02:33:39.787Z,31.83
2017-11-08T02:35:40.875Z,30.70
2017-11-08T02:37:41.864Z,32.47
2017-11-08T02:39:42.959Z,33.10
2017-11-08T02:41:44.022Z,30.70
2017-11-08T02:43:45.187Z,32.27
2017-11-08T02:45:46.193Z,31.80
2017-11-08T02:47:47.165Z,33.20
2017-11-08T02:49:48.356Z,33.43
2017-11-08T02:51:49.464Z,32.03
2017-11-08T02:53:53.178Z,34.03
2017-11-08T02:55:54.220Z,33.90
2017-11-08T02:57:56.246Z,32.63
2017-11-08T02:59:57.242Z,33.77
2017-11-08T03:01:59.404Z,35.53
2017-11-08T03:04:02.552Z,33.30
2017-11-08T03:06:03.566Z,35.30
2017-11-08T03:08:05.081Z,33.53
2017-11-08T03:10:06.143Z,35.00
2017-11-08T03:12:07.157Z,33.03
2017-11-08T03:14:08.157Z,30.67
2017-11-08T03:16:09.189Z,31.77
2017-11-08T03:18:10.253Z,30.50
2017-11-08T03:20:11.459Z,30.40
2017-11-08T03:22:12.523Z,31.53
2017-11-08T03:24:14.275Z,29.87
2017-11-08T03:26:15.343Z,29.33
2017-11-08T03:28:16.343Z,30.83
2017-11-08T03:30:17.321Z,28.60
2017-11-08T03:32:18.494Z,29.70
2017-11-08T03:34:19.485Z,29.00
2017-11-08T03:36:20.491Z,28.27
2017-11-08T03:38:21.469Z,30.00
2017-11-08T03:40:22.528Z,29.50
2017-11-08T03:42:23.638Z,30.40
2017-11-08T03:44:24.745Z,31.90
2017-11-08T03:46:25.770Z,32.00
2017-11-08T03:48:26.825Z,32.97
2017-11-08T03:50:27.817Z,32.30
2017-11-08T03:52:28.984Z,34.10
2017-11-08T03:54:30.122Z,32.87
2017-11-08T03:56:31.142Z,35.30
2017-11-08T03:58:32.126Z,35.50
2017-11-08T04:00:33.925Z,36.10
2017-11-08T04:02:34.952Z,37.23
2017-11-08T04:04:35.926Z,36.43
2017-11-08T04:06:38.136Z,38.17
2017-11-08T04:08:39.126Z,36.67
2017-11-08T04:10:40.094Z,37.80
2017-11-08T04:12:41.111Z,37.97
2017-11-08T04:14:42.117Z,37.60
2017-11-08T04:16:43.069Z,36.80
2017-11-08T04:18:44.813Z,38.90
2017-11-08T04:20:45.912Z,35.87
2017-11-08T04:22:46.935Z,37.00
2017-11-08T04:24:47.901Z,36.00
2017-11-08T04:26:49.101Z,37.00
2017-11-08T04:28:50.453Z,38.73
2017-11-08T04:30:51.524Z,38.70
2017-11-08T04:32:52.542Z,39.40
2017-11-08T04:34:53.512Z,39.30
2017-11-08T04:36:54.720Z,40.87
2017-11-08T04:38:55.862Z,40.97
2017-11-08T04:40:56.894Z,39.87
2017-11-08T04:42:57.966Z,40.00
2017-11-08T04:44:59.696Z,42.13
2017-11-08T04:47:04.668Z,40.67
2017-11-08T04:49:07.020Z,39.40
2017-11-08T04:51:08.154Z,40.80
2017-11-08T04:53:11.250Z,38.50
2017-11-08T04:55:13.157Z,39.47
2017-11-08T04:57:14.993Z,38.23
2017-11-08T04:59:15.990Z,40.73
2017-11-08T05:01:17.793Z,40.40
2017-11-08T05:03:19.036Z,39.57
2017-11-08T05:05:20.145Z,39.97
2017-11-08T05:07:21.138Z,42.47
2017-11-08T05:09:22.293Z,44.50
2017-11-08T05:11:23.345Z,42.47
2017-11-08T05:13:24.993Z,41.53
2017-11-08T05:15:26.006Z,41.40
2017-11-08T05:17:27.191Z,43.93
2017-11-08T05:19:28.217Z,42.37
2017-11-08T05:21:29.222Z,42.47
2017-11-08T05:23:30.209Z,42.63
2017-11-08T05:25:31.556Z,44.37
2017-11-08T05:27:33.402Z,44.13
2017-11-08T05:29:34.631Z,46.17
2017-11-08T05:31:35.619Z,46.97
2017-11-08T05:33:37.604Z,47.80
2017-11-08T05:35:38.949Z,45.70
2017-11-08T05:37:40.836Z,46.10
2017-11-08T05:39:42.106Z,47.63
2017-11-08T05:41:43.224Z,48.47
2017-11-08T05:43:44.916Z,47.07
2017-11-08T05:45:45.888Z,46.07
2017-11-08T05:47:47.804Z,48.00
2017-11-08T05:49:49.951Z,51.33
2017-11-08T05:51:51.116Z,51.50
2017-11-08T05:53:52.123Z,48.70
2017-11-08T05:55:53.122Z,48.53
2017-11-08T05:57:54.671Z,47.70
2017-11-08T05:59:55.727Z,48.47
2017-11-08T06:01:56.952Z,48.00
2017-11-08T06:03:58.221Z,46.20
2017-11-08T06:08:13.754Z,44.50
2017-11-08T06:10:14.874Z,45.37
2017-11-08T06:12:15.954Z,45.87
2017-11-08T06:14:17.075Z,46.73
2017-11-08T06:16:18.116Z,47.03
2017-11-08T06:18:19.116Z,48.90
2017-11-08T06:20:20.262Z,48.47
2017-11-08T06:22:22.062Z,53.00
2017-11-08T06:24:23.546Z,50.40
2017-11-08T06:26:24.900Z,50.07
2017-11-08T06:28:25.925Z,47.67
2017-11-08T06:30:27.438Z,49.93
2017-11-08T06:32:28.457Z,48.80
2017-11-08T06:34:29.437Z,47.53
2017-11-08T06:36:30.425Z,45.00
2017-11-08T06:38:31.480Z,46.23
2017-11-08T06:40:32.445Z,49.70
2017-11-08T06:42:33.494Z,50.53
2017-11-08T06:44:34.501Z,46.90
2017-11-08T06:46:35.534Z,49.70
2017-11-08T06:48:36.618Z,50.00
2017-11-08T06:50:38.399Z,47.70
2017-11-08T06:52:39.758Z,48.63
2017-11-08T06:54:40.781Z,50.30
2017-11-08T06:56:41.816Z,50.23
2017-11-08T06:58:42.812Z,52.50
2017-11-08T07:00:43.821Z,52.77
2017-11-08T07:02:44.858Z,52.77
2017-11-08T07:04:45.840Z,54.57
2017-11-08T07:06:46.833Z,52.70
2017-11-08T07:08:48.614Z,53.27
2017-11-08T07:10:49.609Z,56.17
2017-11-08T07:12:50.585Z,54.30
2017-11-08T07:14:52.307Z,53.30
2017-11-08T07:16:53.304Z,51.97
2017-11-08T07:18:55.009Z,54.90
2017-11-08T07:20:55.972Z,57.80
2017-11-08T07:22:56.954Z,53.37
2017-11-08T07:24:58.696Z,58.50
2017-11-08T07:26:59.652Z,56.57
2017-11-08T07:29:00.658Z,54.57
2017-11-08T07:31:01.702Z,58.00
2017-11-08T07:33:02.745Z,52.20
2017-11-08T07:35:03.738Z,55.30
2017-11-08T07:37:05.497Z,55.37
2017-11-08T07:39:07.249Z,57.17
2017-11-08T07:41:08.261Z,56.80
2017-11-08T07:43:09.258Z,56.33
2017-11-08T07:45:11.069Z,56.17
2017-11-08T07:47:12.051Z,54.10
2017-11-08T07:49:13.054Z,55.60
2017-11-08T07:51:14.027Z,53.80
2017-11-08T07:53:16.837Z,54.23
2017-11-08T07:55:21.727Z,54.57
2017-11-08T07:57:22.699Z,54.13
2017-11-08T07:59:25.508Z,50.97
2017-11-08T08:01:26.480Z,53.87
2017-11-08T08:03:27.418Z,55.83
2017-11-08T08:05:28.369Z,57.90
2017-11-08T08:07:35.487Z,51.40
2017-11-08T08:09:39.351Z,55.13
2017-11-08T08:11:40.304Z,53.87
2017-11-08T08:13:41.246Z,58.47
2017-11-08T08:15:42.187Z,54.50
2017-11-08T08:17:43.125Z,55.90
2017-11-08T08:19:44.068Z,54.03
2017-11-08T08:21:45.025Z,53.83
2017-11-08T08:23:45.973Z,56.90
2017-11-08T08:25:46.921Z,55.20
2017-11-08T08:27:48.711Z,54.07
2017-11-08T08:29:50.397Z,55.20
2017-11-08T08:31:51.353Z,57.63
2017-11-08T08:33:52.281Z,59.53
2017-11-08T08:35:53.239Z,58.80
2017-11-08T08:37:54.225Z,58.40
2017-11-08T08:39:55.206Z,56.40
2017-11-08T08:41:56.899Z,59.03
2017-11-08T08:43:57.837Z,56.23
2017-11-08T08:45:58.808Z,57.37
2017-11-08T08:47:59.740Z,59.30
2017-11-08T08:50:00.657Z,57.13
2017-11-08T08:52:02.347Z,56.80
2017-11-08T08:54:03.272Z,58.40
2017-11-08T08:56:04.956Z,59.00
2017-11-08T08:58:05.888Z,58.10
2017-11-08T09:00:06.851Z,56.23
2017-11-08T09:02:11.791Z,55.80
2017-11-08T09:04:12.724Z,57.93
2017-11-08T09:06:13.662Z,54.43
2017-11-08T09:08:14.596Z,55.97
2017-11-08T09:10:16.292Z,54.07
2017-11-08T09:12:17.258Z,57.30
2017-11-08T09:14:18.199Z,54.93
2017-11-08T09:16:19.145Z,57.67
2017-11-08T09:18:20.097Z,54.63
2017-11-08T09:20:25.999Z,56.40
2017-11-08T09:22:27.776Z,56.10
2017-11-08T09:24:30.651Z,55.40
2017-11-08T09:26:32.364Z,56.60
2017-11-08T09:28:33.322Z,54.67
2017-11-08T09:30:34.291Z,56.03
2017-11-08T09:32:35.284Z,56.13
2017-11-08T09:34:36.344Z,58.53
2017-11-08T09:36:37.311Z,59.17
2017-11-08T09:38:38.304Z,57.93
2017-11-08T09:40:43.244Z,57.70
2017-11-08T09:42:46.809Z,57.20
2017-11-08T09:44:47.785Z,54.93
2017-11-08T09:46:49.499Z,53.97
2017-11-08T09:48:50.456Z,54.00
2017-11-08T09:50:51.419Z,55.80
2017-11-08T09:52:52.367Z,57.07
2017-11-08T09:54:53.308Z,54.70
2017-11-08T09:56:54.252Z,51.80
2017-11-08T09:58:55.209Z,55.17
2017-11-08T10:00:56.146Z,57.77
2017-11-08T10:02:57.110Z,54.80
2017-11-08T10:04:58.804Z,54.83
2017-11-08T10:06:59.743Z,58.57
2017-11-08T10:09:01.696Z,55.53
2017-11-08T10:11:03.397Z,53.50
2017-11-08T10:13:10.390Z,55.80
2017-11-08T10:15:11.339Z,55.73
2017-11-08T10:17:12.255Z,58.47
2017-11-08T10:19:15.201Z,56.57
2017-11-08T10:21:16.150Z,56.83
2017-11-08T10:23:19.202Z,52.93
2017-11-08T10:25:20.132Z,56.00
2017-11-08T10:27:21.080Z,55.73
2017-11-08T10:29:22.780Z,58.57
2017-11-08T10:31:23.744Z,59.03
2017-11-08T10:33:24.713Z,57.37
2017-11-08T10:35:25.652Z,58.80
2017-11-08T10:37:26.621Z,61.93
2017-11-08T10:39:27.549Z,62.47
2017-11-08T10:41:28.512Z,62.07
2017-11-08T10:43:30.206Z,55.60
2017-11-08T10:45:31.185Z,55.73
2017-11-08T10:47:33.081Z,57.73
2017-11-08T10:49:35.952Z,57.23
2017-11-08T10:51:37.056Z,55.23
2017-11-08T10:53:38.071Z,56.77
2017-11-08T10:55:39.141Z,56.40
2017-11-08T10:57:40.194Z,56.53
2017-11-08T10:59:47.291Z,56.57
2017-11-08T11:01:48.304Z,65.95
2017-11-08T11:03:51.229Z,58.53
2017-11-08T11:05:52.247Z,58.10
2017-11-08T11:07:53.333Z,54.47
2017-11-08T11:09:57.270Z,53.70
2017-11-08T11:11:59.018Z,53.50
2017-11-08T11:14:06.165Z,56.40
2017-11-08T11:16:07.345Z,55.80
2017-11-08T11:18:08.385Z,55.70
2017-11-08T11:20:09.521Z,53.80
2017-11-08T11:22:10.525Z,56.50
2017-11-08T11:24:11.510Z,55.33
2017-11-08T11:26:12.516Z,56.03
2017-11-08T11:28:13.582Z,55.53
2017-11-08T11:30:14.552Z,57.77
2017-11-08T11:32:15.540Z,58.83
2017-11-08T11:34:16.531Z,61.00
2017-11-08T11:36:17.557Z,55.80
2017-11-08T11:38:19.333Z,60.60
2017-11-08T11:40:20.296Z,61.27
2017-11-08T11:42:26.974Z,59.00
2017-11-08T11:44:27.943Z,60.07
2017-11-08T11:46:28.992Z,60.87
2017-11-08T11:48:30.717Z,58.50
2017-11-08T11:50:32.510Z,59.90
2017-11-08T11:52:33.546Z,58.07
2017-11-08T11:54:34.542Z,59.43
2017-11-08T11:56:35.596Z,58.63
2017-11-08T11:58:36.589Z,59.10
2017-11-08T12:00:37.673Z,58.43
2017-11-08T12:02:38.690Z,60.63
2017-11-08T12:04:39.841Z,58.40
2017-11-08T12:06:40.858Z,58.83
2017-11-08T12:08:42.023Z,58.43
2017-11-08T12:10:43.093Z,59.80
2017-11-08T12:12:44.105Z,59.70
2017-11-08T12:14:45.840Z,58.43
2017-11-08T12:16:46.926Z,60.80
2017-11-08T12:18:48.694Z,56.67
2017-11-08T12:20:50.449Z,57.10
2017-11-08T12:22:51.499Z,60.87
2017-11-08T12:24:53.237Z,59.63
2017-11-08T12:26:54.253Z,59.50
2017-11-08T12:28:56.238Z,59.50
2017-11-08T12:31:03.060Z,61.67
2017-11-08T12:33:04.798Z,60.93
2017-11-08T12:35:06.566Z,61.87
2017-11-08T12:37:07.665Z,62.83
2017-11-08T12:39:08.682Z,63.87
2017-11-08T12:41:09.684Z,60.67
2017-11-08T12:43:12.697Z,59.70
2017-11-08T12:45:14.735Z,62.40
2017-11-08T12:47:15.750Z,63.60
2017-11-08T12:49:17.505Z,63.27
2017-11-08T12:51:18.728Z,67.67
2017-11-08T12:53:19.721Z,61.50
2017-11-08T12:55:21.553Z,63.20
2017-11-08T12:57:22.552Z,65.73
2017-11-08T12:59:23.584Z,62.30
2017-11-08T13:01:24.573Z,60.40
2017-11-08T13:03:25.552Z,63.43
2017-11-08T13:05:26.708Z,66.53
2017-11-08T13:07:27.739Z,60.90
2017-11-08T13:09:28.758Z,61.07
2017-11-08T13:11:34.632Z,64.37
2017-11-08T13:13:35.798Z,64.80
2017-11-08T13:15:36.882Z,60.60
2017-11-08T13:17:38.610Z,62.60
2017-11-08T13:19:39.609Z,68.77
2017-11-08T13:21:40.727Z,72.43
2017-11-08T13:23:42.432Z,60.50
2017-11-08T13:25:43.838Z,66.97
2017-11-08T13:27:44.894Z,63.67
2017-11-08T13:29:45.908Z,61.27
2017-11-08T13:31:46.933Z,67.50
2017-11-08T13:33:47.959Z,63.17
2017-11-08T13:35:49.820Z,64.10
2017-11-08T13:37:51.938Z,62.77
2017-11-08T13:39:52.917Z,65.70
2017-11-08T13:41:54.102Z,66.03
2017-11-08T13:43:55.137Z,64.47
2017-11-08T13:45:56.954Z,63.30
2017-11-08T13:47:57.979Z,67.70
2017-11-08T13:49:58.967Z,68.00
2017-11-08T13:51:59.956Z,63.80
2017-11-08T13:54:01.751Z,69.60
2017-11-08T13:56:02.870Z,69.83
2017-11-08T13:58:03.853Z,71.83
2017-11-08T14:00:04.915Z,69.53
2017-11-08T14:02:05.978Z,70.67
2017-11-08T14:04:06.997Z,68.57
2017-11-08T14:06:08.053Z,67.93
2017-11-08T14:08:09.167Z,69.83
2017-11-08T14:10:10.154Z,74.60
2017-11-08T14:12:11.119Z,71.10
2017-11-08T14:14:12.070Z,72.33
2017-11-08T14:16:13.255Z,73.93
2017-11-08T14:18:14.295Z,75.50
2017-11-08T14:20:15.337Z,74.03
2017-11-08T14:22:17.102Z,70.80
2017-11-08T14:24:18.642Z,69.70
2017-11-08T14:26:19.834Z,70.60
2017-11-08T14:28:20.915Z,68.77
2017-11-08T14:30:21.953Z,72.50
2017-11-08T14:34:31.290Z,74.47
2017-11-08T14:38:42.538Z,70.70
2017-11-08T14:40:44.132Z,71.90
2017-11-08T14:42:47.491Z,69.27
2017-11-08T14:44:48.814Z,71.50
2017-11-08T14:46:50.045Z,70.83
2017-11-08T14:48:51.055Z,71.80
2017-11-08T14:50:52.084Z,72.00
2017-11-08T14:52:57.056Z,71.20
2017-11-08T14:54:58.052Z,70.13
2017-11-08T14:56:59.173Z,67.20
2017-11-08T14:59:00.167Z,66.53
2017-11-08T15:01:01.214Z,68.90
2017-11-08T15:03:02.296Z,68.90
2017-11-08T15:05:03.591Z,69.67
2017-11-08T15:07:04.958Z,69.03
2017-11-08T15:09:05.998Z,68.20
2017-11-08T15:11:07.042Z,66.07
2017-11-08T15:13:08.052Z,65.23
2017-11-08T15:15:14.957Z,65.90
2017-11-08T15:17:15.986Z,69.23
2017-11-08T15:19:20.203Z,64.10
2017-11-08T15:21:21.414Z,67.67
2017-11-08T15:23:22.452Z,67.43
2017-11-08T15:25:23.467Z,69.10
2017-11-08T15:27:25.204Z,68.33
2017-11-08T15:29:26.206Z,68.10
2017-11-08T15:31:27.224Z,70.60
2017-11-08T15:33:28.180Z,69.73
2017-11-08T15:35:29.894Z,67.70
2017-11-08T15:37:30.897Z,68.53
2017-11-08T15:39:31.906Z,84.32
2017-11-08T15:41:32.943Z,76.50
2017-11-08T15:43:33.967Z,71.87
2017-11-08T15:45:34.929Z,66.87
2017-11-08T15:47:36.843Z,68.77
2017-11-08T15:49:38.589Z,99.80
2017-11-08T15:51:39.570Z,73.20
2017-11-08T15:53:40.707Z,70.73
2017-11-08T15:55:42.445Z,76.13
2017-11-08T15:57:43.429Z,70.90
2017-11-08T15:59:44.421Z,67.20
2017-11-08T16:01:45.385Z,72.37
2017-11-08T16:03:46.369Z,69.40
2017-11-08T16:05:47.352Z,71.87
2017-11-08T16:07:48.350Z,74.80
2017-11-08T16:09:49.401Z,66.60
2017-11-08T16:11:51.127Z,71.97
2017-11-08T16:13:52.103Z,69.67
2017-11-08T16:15:53.829Z,77.37
2017-11-08T16:17:54.811Z,72.90
2017-11-08T16:19:56.547Z,74.13
2017-11-08T16:21:57.542Z,72.63
2017-11-08T16:23:58.519Z,71.43
2017-11-08T16:25:59.557Z,68.33
2017-11-08T16:28:00.594Z,71.67
2017-11-08T16:30:01.594Z,73.57
2017-11-08T16:32:04.597Z,74.27
2017-11-08T16:34:05.578Z,75.17
2017-11-08T16:36:06.570Z,77.93
2017-11-08T16:38:07.543Z,83.60
2017-11-08T16:40:09.261Z,79.37
2017-11-08T16:42:10.248Z,81.27
2017-11-08T16:44:12.003Z,76.23
2017-11-08T16:46:13.725Z,73.10
2017-11-08T16:48:14.726Z,77.90
2017-11-08T16:50:16.492Z,81.20
2017-11-08T16:52:17.475Z,79.13
2017-11-08T16:54:18.515Z,82.20
2017-11-08T16:56:19.554Z,89.20
2017-11-08T16:58:20.530Z,80.50
2017-11-08T17:00:21.521Z,80.40
2017-11-08T17:02:22.476Z,88.03
2017-11-08T17:04:23.489Z,83.97
2017-11-08T17:06:25.202Z,81.60
2017-11-08T17:08:26.230Z,80.10
2017-11-08T17:10:27.195Z,79.07
2017-11-08T17:12:28.153Z,79.37
2017-11-08T17:14:29.869Z,73.40
2017-11-08T17:16:30.847Z,76.30
2017-11-08T17:18:31.870Z,69.97
2017-11-08T17:20:32.876Z,74.87
2017-11-08T17:22:33.857Z,77.43
2017-11-08T17:24:34.894Z,73.23
2017-11-08T17:26:36.110Z,76.10
2017-11-08T17:28:37.114Z,70.03
2017-11-08T17:30:38.189Z,77.00
2017-11-08T17:32:40.981Z,73.70
2017-11-08T17:34:41.994Z,72.57
2017-11-08T17:36:42.978Z,79.50
2017-11-08T17:38:44.244Z,74.80
2017-11-08T17:40:45.533Z,73.20
2017-11-08T17:42:46.642Z,70.47
2017-11-08T17:44:47.803Z,72.27
2017-11-08T17:46:48.797Z,72.63
2017-11-08T17:48:49.837Z,68.80
2017-11-08T17:50:50.986Z,74.77
2017-11-08T17:52:52.183Z,73.50
2017-11-08T17:54:53.211Z,74.77
2017-11-08T17:56:54.248Z,72.60
2017-11-08T17:58:57.719Z,69.20
2017-11-08T18:00:58.842Z,71.07
2017-11-08T18:03:00.637Z,70.60
2017-11-08T18:05:01.657Z,69.77
2017-11-08T18:07:02.682Z,67.43
2017-11-08T18:09:03.709Z,66.97
2017-11-08T18:11:04.782Z,70.67
2017-11-08T18:13:05.754Z,71.37
2017-11-08T18:15:06.765Z,70.00
2017-11-08T18:17:07.802Z,64.43
2017-11-08T18:19:08.819Z,68.47
2017-11-08T18:21:09.814Z,67.10
2017-11-08T18:23:10.861Z,73.87
2017-11-08T18:25:12.626Z,70.40
2017-11-08T18:27:13.602Z,69.80
2017-11-08T18:29:14.579Z,67.67
2017-11-08T18:31:15.612Z,66.40
2017-11-08T18:33:16.626Z,67.10
2017-11-08T18:35:18.333Z,65.50
2017-11-08T18:37:19.310Z,66.67
2017-11-08T18:39:20.343Z,68.63
2017-11-08T18:41:21.371Z,66.33
2017-11-08T18:43:22.360Z,64.40
2017-11-08T18:45:24.129Z,68.73
2017-11-08T18:47:25.169Z,64.00
2017-11-08T18:49:26.151Z,67.80
2017-11-08T18:51:27.166Z,68.47
2017-11-08T18:53:28.200Z,65.27
2017-11-08T18:55:29.235Z,65.33
2017-11-08T18:57:30.206Z,67.90
2017-11-08T18:59:38.906Z,62.00
2017-11-08T19:01:39.923Z,66.90
2017-11-08T19:03:40.923Z,69.10
2017-11-08T19:05:41.933Z,67.00
2017-11-08T19:07:42.952Z,65.10
2017-11-08T19:09:44.695Z,66.83
2017-11-08T19:11:45.726Z,68.17
2017-11-08T19:13:46.755Z,64.97
2017-11-08T19:15:47.864Z,65.77
2017-11-08T19:17:48.969Z,65.90
2017-11-08T19:19:50.004Z,68.30
2017-11-08T19:21:51.864Z,62.13
2017-11-08T19:23:52.908Z,66.97
2017-11-08T19:25:53.909Z,64.20
2017-11-08T19:27:54.948Z,64.27
2017-11-08T19:29:58.737Z,65.87
2017-11-08T19:31:59.827Z,69.63
2017-11-08T19:34:01.540Z,65.70
2017-11-08T19:36:03.562Z,65.77
2017-11-08T19:38:04.885Z,64.60
2017-11-08T19:40:09.329Z,65.50
2017-11-08T19:42:18.797Z,65.17
2017-11-08T19:44:19.879Z,66.83
2017-11-08T19:46:20.895Z,70.63
2017-11-08T19:48:22.062Z,64.87
2017-11-08T19:50:23.387Z,67.37
2017-11-08T19:52:25.090Z,68.17
2017-11-08T19:54:26.218Z,68.23
2017-11-08T19:56:27.781Z,61.83
2017-11-08T19:58:28.986Z,66.60
2017-11-08T20:00:30.029Z,65.30
2017-11-08T20:02:30.994Z,63.67
2017-11-08T20:04:31.981Z,66.73
2017-11-08T20:06:32.948Z,71.77
2017-11-08T20:08:33.930Z,89.07
2017-11-08T20:10:34.960Z,82.77
2017-11-08T20:12:35.987Z,73.27
2017-11-08T20:14:36.966Z,73.23
2017-11-08T20:16:37.925Z,68.90
2017-11-08T20:18:38.883Z,71.03
2017-11-08T20:20:39.961Z,70.63
2017-11-08T20:22:40.909Z,69.10
2017-11-08T20:24:41.911Z,68.87
2017-11-08T20:26:43.693Z,66.73
2017-11-08T20:28:44.717Z,68.33
2017-11-08T20:30:45.716Z,65.47
2017-11-08T20:32:46.765Z,65.97
2017-11-08T20:34:47.749Z,69.73
2017-11-08T20:36:48.772Z,68.67
2017-11-08T20:38:49.756Z,68.30
2017-11-08T20:40:50.739Z,84.72
2017-11-08T20:42:51.765Z,78.63
2017-11-08T20:44:53.503Z,73.40
2017-11-08T20:46:54.462Z,66.90
2017-11-08T20:48:55.452Z,68.30
2017-11-08T20:50:56.505Z,70.83
2017-11-08T20:52:57.530Z,64.60
2017-11-08T20:54:58.526Z,65.10
2017-11-08T20:56:59.493Z,66.20
2017-11-08T20:59:00.636Z,65.90
2017-11-08T21:01:05.009Z,65.50
2017-11-08T21:03:06.090Z,65.37
2017-11-08T21:05:07.069Z,64.77
2017-11-08T21:07:08.017Z,66.40
2017-11-08T21:09:09.041Z,71.17
2017-11-08T21:11:10.019Z,65.57
2017-11-08T21:13:10.970Z,71.83
2017-11-08T21:15:12.702Z,65.40
2017-11-08T21:17:13.691Z,66.40
2017-11-08T21:19:14.710Z,67.37
2017-11-08T21:21:15.681Z,66.53
2017-11-08T21:23:16.647Z,66.53
2017-11-08T21:25:17.647Z,68.00
2017-11-08T21:27:18.728Z,68.43
2017-11-08T21:29:19.723Z,68.50
2017-11-08T21:31:20.719Z,69.17
2017-11-08T21:33:21.717Z,69.40
2017-11-08T21:35:22.727Z,67.73
2017-11-08T21:37:23.685Z,70.93
2017-11-08T21:39:24.646Z,66.00
2017-11-08T21:41:25.659Z,74.37
2017-11-08T21:43:26.680Z,63.80
2017-11-08T21:45:28.449Z,65.73
2017-11-08T21:47:30.291Z,71.70
2017-11-08T21:49:31.249Z,68.27
2017-11-08T21:51:32.241Z,64.80
2017-11-08T21:53:33.258Z,69.57
2017-11-08T21:55:35.009Z,65.67
2017-11-08T21:57:36.023Z,64.30
2017-11-08T21:59:36.984Z,68.63
2017-11-08T22:01:37.941Z,66.60
2017-11-08T22:03:38.963Z,66.20
2017-11-08T22:05:40.706Z,66.40
2017-11-08T22:07:41.726Z,67.00
2017-11-08T22:09:43.589Z,66.23
2017-11-08T22:11:45.332Z,70.77
2017-11-08T22:13:46.363Z,66.53
2017-11-08T22:15:47.334Z,69.30
2017-11-08T22:17:48.579Z,66.07
2017-11-08T22:19:49.577Z,67.97
2017-11-08T22:21:50.594Z,67.07
2017-11-08T22:23:52.361Z,67.77
2017-11-08T22:25:53.431Z,66.07
2017-11-08T22:27:54.517Z,64.37
2017-11-08T22:29:55.507Z,66.00
2017-11-08T22:31:57.239Z,68.47
2017-11-08T22:33:58.266Z,64.77
2017-11-08T22:35:59.238Z,69.27
2017-11-08T22:38:00.226Z,69.47
2017-11-08T22:40:01.210Z,70.47
2017-11-08T22:42:02.210Z,64.97
2017-11-08T22:44:03.191Z,66.13
2017-11-08T22:46:04.284Z,65.60
2017-11-08T22:48:05.313Z,70.47
2017-11-08T22:50:06.275Z,69.50
2017-11-08T22:52:07.249Z,67.47
2017-11-08T22:54:08.270Z,67.47
2017-11-08T22:56:10.904Z,71.73
2017-11-08T22:58:11.998Z,68.50
2017-11-08T23:00:12.995Z,67.40
2017-11-08T23:02:14.061Z,67.67
2017-11-08T23:04:15.060Z,68.30
2017-11-08T23:06:16.801Z,67.60
2017-11-08T23:08:17.804Z,67.20
2017-11-08T23:10:18.808Z,66.43
2017-11-08T23:12:20.519Z,65.17
2017-11-08T23:14:21.566Z,66.53
2017-11-08T23:16:22.553Z,71.20
2017-11-08T23:18:23.609Z,69.40
2017-11-08T23:20:24.573Z,68.07
2017-11-08T23:22:26.394Z,65.40
2017-11-08T23:24:27.360Z,66.10
2017-11-08T23:26:28.380Z,66.83
2017-11-08T23:28:29.439Z,69.90
2017-11-08T23:30:30.432Z,68.50
2017-11-08T23:32:31.460Z,67.80
2017-11-08T23:34:32.476Z,70.70
2017-11-08T23:36:33.526Z,69.77
2017-11-08T23:38:34.537Z,67.20
2017-11-08T23:40:35.560Z,68.13
2017-11-08T23:42:37.312Z,66.40
2017-11-08T23:44:38.347Z,70.60
2017-11-08T23:46:39.364Z,69.90
2017-11-08T23:48:40.321Z,68.30
2017-11-08T23:50:41.292Z,70.60
2017-11-08T23:52:42.250Z,69.97
2017-11-08T23:54:46.000Z,70.30
2017-11-08T23:56:48.933Z,70.00
2017-11-08T23:58:49.927Z,72.90
